Terminal Aerodrome Forecast
Issued by NWS

Home | Current Version | Previous Version | Text Only | Print | Product List | Glossary On
Versions: 1 2 3 4 5 6 7 8 9 10 11 12 13 14 15 16
000
FTAK31 PANC 261742
TAFADU
TAF
PADU 261742Z 2618/2718 28011KT P6SM SCT020 BKN040
      TEMPO 2618/2622 BKN020
     FM262200 33011KT P6SM VCSH BKN015
     FM270400 33011KT P6SM BKN035=

USA.gov is the U.S. government's official web portal to all federal, state and local government web resources and services.